createdAt,value
2022-07-26T00:00:08.804Z,23.90
2022-07-26T00:02:35.491Z,23.90
2022-07-26T00:05:02.145Z,23.80
2022-07-26T00:07:28.751Z,23.80
2022-07-26T00:10:04.929Z,23.80
2022-07-26T00:12:31.713Z,23.70
2022-07-26T00:14:58.335Z,23.70
2022-07-26T00:17:24.919Z,23.60
2022-07-26T00:19:51.535Z,23.60
2022-07-26T00:22:36.167Z,23.60
2022-07-26T00:25:03.918Z,23.60
2022-07-26T00:27:30.680Z,23.50
2022-07-26T00:29:57.341Z,23.50
2022-07-26T00:32:23.957Z,23.40
2022-07-26T00:34:51.551Z,23.40
2022-07-26T00:37:20.477Z,23.40
2022-07-26T00:39:47.557Z,23.40
2022-07-26T00:42:14.270Z,23.30
2022-07-26T00:44:41.485Z,23.30
2022-07-26T00:47:08.147Z,23.30
2022-07-26T00:49:34.788Z,23.30
2022-07-26T00:52:01.463Z,23.30
2022-07-26T00:54:28.252Z,23.30
2022-07-26T00:56:55.363Z,23.30
2022-07-26T00:59:21.998Z,23.20
2022-07-26T01:01:48.847Z,23.20
2022-07-26T01:04:15.862Z,23.20
2022-07-26T01:06:42.475Z,23.20
2022-07-26T01:09:09.382Z,23.10
2022-07-26T01:11:35.994Z,23.10
2022-07-26T01:14:02.608Z,23.00
2022-07-26T01:16:29.256Z,23.00
2022-07-26T01:18:55.852Z,23.00
2022-07-26T01:21:22.510Z,22.90
2022-07-26T01:23:49.967Z,23.00
2022-07-26T01:26:16.572Z,22.90
2022-07-26T01:28:44.741Z,22.90
2022-07-26T01:31:11.405Z,22.90
2022-07-26T01:33:38.066Z,22.80
2022-07-26T01:36:04.818Z,22.80
2022-07-26T01:38:31.385Z,22.80
2022-07-26T01:40:58.013Z,22.70
2022-07-26T01:43:24.627Z,22.70
2022-07-26T01:45:51.367Z,22.70
2022-07-26T01:48:18.026Z,22.70
2022-07-26T01:50:44.641Z,22.70
2022-07-26T01:53:11.234Z,22.60
2022-07-26T01:55:37.934Z,22.70
2022-07-26T01:58:06.052Z,22.60
2022-07-26T02:00:33.191Z,22.60
2022-07-26T02:03:00.153Z,22.60
2022-07-26T02:05:26.766Z,22.60
2022-07-26T02:07:53.394Z,22.60
2022-07-26T02:10:20.459Z,22.50
2022-07-26T02:12:48.485Z,22.50
2022-07-26T02:15:15.482Z,22.50
2022-07-26T02:17:42.322Z,22.50
2022-07-26T02:20:09.348Z,22.50
2022-07-26T02:22:35.967Z,22.50
2022-07-26T02:25:05.213Z,22.50
2022-07-26T02:27:32.641Z,22.40
2022-07-26T02:29:59.248Z,22.40
2022-07-26T02:32:25.858Z,22.40
2022-07-26T02:34:52.578Z,22.40
2022-07-26T02:37:19.166Z,22.50
2022-07-26T02:39:45.785Z,22.40
2022-07-26T02:42:12.371Z,22.30
2022-07-26T02:44:38.924Z,22.30
2022-07-26T02:47:05.498Z,22.30
2022-07-26T02:49:32.337Z,22.30
2022-07-26T02:51:58.920Z,22.30
2022-07-26T02:54:25.493Z,22.20
2022-07-26T02:56:52.069Z,22.30
2022-07-26T02:59:18.636Z,22.20
2022-07-26T03:01:45.327Z,22.20
2022-07-26T03:04:11.993Z,22.20
2022-07-26T03:06:38.759Z,22.20
2022-07-26T03:09:05.385Z,22.20
2022-07-26T03:11:31.995Z,22.20
2022-07-26T03:13:58.682Z,22.10
2022-07-26T03:16:29.384Z,22.20
2022-07-26T03:18:56.792Z,22.10
2022-07-26T03:21:23.685Z,22.10
2022-07-26T03:23:50.285Z,22.10
2022-07-26T03:26:17.228Z,22.10
2022-07-26T03:28:44.634Z,22.10
2022-07-26T03:31:11.777Z,22.10
2022-07-26T03:33:38.977Z,22.10
2022-07-26T03:36:05.901Z,22.10
2022-07-26T03:38:38.270Z,22.10
2022-07-26T03:41:04.972Z,22.10
2022-07-26T03:43:31.553Z,22.10
2022-07-26T03:46:03.201Z,22.00
2022-07-26T03:48:30.634Z,22.00
2022-07-26T03:50:57.246Z,22.10
2022-07-26T03:53:23.964Z,22.00
2022-07-26T03:56:09.927Z,22.00
2022-07-26T03:58:36.623Z,22.00
2022-07-26T04:01:04.261Z,22.00
2022-07-26T04:03:30.927Z,22.00
2022-07-26T04:05:57.553Z,22.00
2022-07-26T04:08:24.209Z,22.00
2022-07-26T04:10:53.752Z,21.90
2022-07-26T04:13:20.719Z,21.90
2022-07-26T04:15:47.417Z,22.00
2022-07-26T04:18:16.991Z,21.90
2022-07-26T04:20:43.813Z,21.90
2022-07-26T04:23:11.836Z,21.90
2022-07-26T04:25:41.351Z,22.00
2022-07-26T04:28:09.356Z,22.00
2022-07-26T04:30:36.031Z,22.00
2022-07-26T04:33:02.742Z,22.00
2022-07-26T04:35:29.390Z,22.00
2022-07-26T04:37:55.961Z,22.00
2022-07-26T04:40:23.556Z,22.10
2022-07-26T04:42:50.987Z,22.10
2022-07-26T04:45:17.976Z,22.10
2022-07-26T04:47:45.383Z,22.10
2022-07-26T04:50:15.945Z,22.10
2022-07-26T04:52:42.708Z,22.40
2022-07-26T04:55:09.929Z,22.40
2022-07-26T04:57:36.860Z,22.40
2022-07-26T05:00:20.682Z,22.40
2022-07-26T05:02:52.153Z,22.40
2022-07-26T05:05:18.991Z,22.40
2022-07-26T05:07:46.395Z,22.40
2022-07-26T05:10:13.727Z,22.40
2022-07-26T05:12:40.464Z,22.40
2022-07-26T05:15:13.690Z,22.40
2022-07-26T05:17:42.669Z,22.50
2022-07-26T05:20:10.732Z,22.50
2022-07-26T05:22:37.342Z,22.50
2022-07-26T05:25:04.722Z,22.60
2022-07-26T05:27:31.375Z,22.60
2022-07-26T05:29:58.577Z,22.60
2022-07-26T05:32:25.228Z,22.70
2022-07-26T05:34:51.858Z,22.70
2022-07-26T05:37:18.524Z,22.80
2022-07-26T05:39:45.184Z,22.90
2022-07-26T05:42:11.797Z,22.90
2022-07-26T05:44:42.745Z,23.00
2022-07-26T05:47:09.779Z,23.00
2022-07-26T05:49:40.041Z,23.00
2022-07-26T05:52:07.835Z,23.10
2022-07-26T05:54:34.471Z,23.10
2022-07-26T05:57:01.106Z,23.20
2022-07-26T05:59:27.736Z,23.20
2022-07-26T06:01:56.657Z,23.30
2022-07-26T06:04:23.811Z,23.30
2022-07-26T06:06:52.936Z,23.40
2022-07-26T06:09:19.598Z,23.40
2022-07-26T06:11:47.600Z,23.40
2022-07-26T06:14:14.646Z,23.30
2022-07-26T06:16:41.618Z,23.30
2022-07-26T06:19:08.266Z,23.30
2022-07-26T06:21:34.871Z,23.30
2022-07-26T06:24:01.499Z,23.30
2022-07-26T06:26:28.231Z,23.30
2022-07-26T06:28:54.976Z,23.20
2022-07-26T06:31:21.672Z,23.20
2022-07-26T06:33:48.344Z,23.20
2022-07-26T06:36:14.902Z,23.20
2022-07-26T06:38:41.535Z,23.40
2022-07-26T06:41:08.204Z,23.50
2022-07-26T06:43:34.799Z,23.50
2022-07-26T06:46:01.866Z,23.60
2022-07-26T06:48:28.699Z,23.50
2022-07-26T06:50:55.635Z,23.50
2022-07-26T06:53:22.245Z,23.60
2022-07-26T06:55:48.828Z,23.60
2022-07-26T06:58:15.393Z,23.70
2022-07-26T07:00:42.114Z,23.70
2022-07-26T07:03:08.792Z,23.80
2022-07-26T07:05:35.391Z,23.90
2022-07-26T07:08:01.939Z,24.00
2022-07-26T07:10:29.081Z,24.50
2022-07-26T07:12:56.115Z,25.40
2022-07-26T07:15:22.688Z,26.10
2022-07-26T07:17:51.547Z,26.70
2022-07-26T07:20:18.234Z,27.40
2022-07-26T07:22:44.832Z,28.30
2022-07-26T07:25:14.598Z,28.70
2022-07-26T07:27:41.505Z,29.60
2022-07-26T07:30:10.803Z,30.10
2022-07-26T07:32:37.820Z,30.40
2022-07-26T07:35:04.752Z,30.90
2022-07-26T07:37:52.755Z,31.00
2022-07-26T07:40:21.050Z,31.00
2022-07-26T07:42:47.674Z,31.30
2022-07-26T07:45:14.857Z,31.30
2022-07-26T07:47:41.486Z,31.50
2022-07-26T07:50:08.466Z,31.60
2022-07-26T07:52:35.133Z,31.60
2022-07-26T07:55:39.932Z,32.10
2022-07-26T07:57:48.358Z,32.70
2022-07-26T08:00:16.767Z,33.20
2022-07-26T08:02:45.552Z,32.90
2022-07-26T08:05:15.174Z,32.80
2022-07-26T08:07:42.361Z,33.20
2022-07-26T08:10:09.113Z,33.50
2022-07-26T08:12:35.900Z,33.90
2022-07-26T08:15:07.567Z,34.80
2022-07-26T08:17:35.276Z,35.80
2022-07-26T08:20:06.678Z,36.00
2022-07-26T08:22:35.448Z,35.50
2022-07-26T08:25:02.056Z,34.20
2022-07-26T08:27:28.698Z,33.20
2022-07-26T08:29:55.321Z,32.30
2022-07-26T08:32:21.981Z,31.90
2022-07-26T08:34:48.812Z,32.10
2022-07-26T08:37:17.457Z,33.30
2022-07-26T08:39:45.178Z,35.10
2022-07-26T08:42:24.573Z,36.30
2022-07-26T08:44:51.692Z,36.10
2022-07-26T08:47:35.483Z,35.70
2022-07-26T08:50:04.867Z,34.70
2022-07-26T08:52:31.427Z,33.70
2022-07-26T08:54:58.004Z,32.80
2022-07-26T08:57:24.589Z,32.10
2022-07-26T09:00:10.133Z,32.00
2022-07-26T09:02:41.120Z,32.00
2022-07-26T09:05:08.061Z,31.70
2022-07-26T09:07:35.002Z,31.60
2022-07-26T09:10:11.853Z,32.70
2022-07-26T09:12:38.935Z,33.10
2022-07-26T09:15:07.356Z,33.00
2022-07-26T09:17:38.089Z,34.10
2022-07-26T09:20:04.710Z,35.20
2022-07-26T09:22:31.429Z,36.70
2022-07-26T09:24:58.346Z,37.70
2022-07-26T09:27:33.392Z,38.60
2022-07-26T09:30:06.212Z,39.40
2022-07-26T09:32:33.174Z,40.40
2022-07-26T09:35:36.956Z,41.10
2022-07-26T09:37:57.995Z,41.10
2022-07-26T09:40:30.722Z,40.10
2022-07-26T09:42:59.070Z,38.50
2022-07-26T09:45:26.495Z,37.00
2022-07-26T09:47:53.306Z,35.50
2022-07-26T09:50:27.867Z,35.20
2022-07-26T09:53:10.767Z,35.00
2022-07-26T09:55:46.336Z,35.70
2022-07-26T09:58:14.195Z,37.30
2022-07-26T10:00:41.338Z,38.80
2022-07-26T10:03:08.042Z,39.80
2022-07-26T10:05:35.157Z,40.50
2022-07-26T10:08:02.045Z,40.80
2022-07-26T10:10:48.891Z,40.70
2022-07-26T10:13:16.117Z,40.40
2022-07-26T10:15:44.002Z,39.60
2022-07-26T10:18:32.478Z,38.40
2022-07-26T10:20:59.047Z,37.40
2022-07-26T10:23:36.158Z,37.30
2022-07-26T10:26:03.876Z,38.00
2022-07-26T10:28:32.501Z,38.90
2022-07-26T10:31:18.001Z,38.90
2022-07-26T10:33:46.981Z,39.30
2022-07-26T10:36:33.922Z,39.40
2022-07-26T10:39:00.561Z,38.20
2022-07-26T10:41:41.329Z,37.70
2022-07-26T10:44:18.230Z,37.70
2022-07-26T10:47:00.002Z,38.70
2022-07-26T10:49:31.455Z,39.80
2022-07-26T10:52:14.778Z,40.00
2022-07-26T10:54:56.695Z,38.70
2022-07-26T10:57:28.042Z,39.00
2022-07-26T10:59:57.916Z,39.20
2022-07-26T11:02:28.895Z,38.30
2022-07-26T11:05:02.119Z,37.30
2022-07-26T11:07:29.506Z,36.90
2022-07-26T11:09:56.691Z,37.10
2022-07-26T11:12:23.672Z,37.20
2022-07-26T11:14:50.476Z,38.70
2022-07-26T11:17:46.210Z,39.90
2022-07-26T11:20:27.695Z,40.60
2022-07-26T11:22:56.424Z,40.80
2022-07-26T11:25:23.845Z,41.30
2022-07-26T11:28:07.352Z,41.30
2022-07-26T11:30:34.924Z,41.10
2022-07-26T11:33:01.502Z,40.30
2022-07-26T11:35:29.708Z,40.40
2022-07-26T11:38:07.772Z,40.60
2022-07-26T11:40:47.517Z,41.00
2022-07-26T11:43:14.093Z,39.70
2022-07-26T11:45:40.709Z,38.50
2022-07-26T11:48:07.417Z,37.20
2022-07-26T11:50:34.097Z,36.10
2022-07-26T11:53:00.930Z,35.50
2022-07-26T11:55:30.866Z,35.40
2022-07-26T11:58:04.384Z,35.10
2022-07-26T12:00:31.030Z,34.60
2022-07-26T12:02:58.943Z,33.90
2022-07-26T12:05:27.484Z,33.40
2022-07-26T12:07:58.739Z,32.80
2022-07-26T12:10:25.762Z,32.20
2022-07-26T12:13:13.059Z,33.00
2022-07-26T12:15:47.637Z,33.60
2022-07-26T12:18:27.572Z,33.20
2022-07-26T12:21:04.939Z,33.70
2022-07-26T12:23:41.780Z,34.60
2022-07-26T12:26:24.923Z,35.70
2022-07-26T12:28:54.106Z,36.80
2022-07-26T12:31:24.015Z,37.20
2022-07-26T12:33:50.781Z,37.80
2022-07-26T12:36:27.424Z,37.20
2022-07-26T12:38:59.456Z,37.40
2022-07-26T12:41:36.079Z,37.90
2022-07-26T12:44:03.302Z,37.50
2022-07-26T12:46:31.748Z,38.00
2022-07-26T12:49:00.707Z,38.70
2022-07-26T12:51:27.690Z,38.50
2022-07-26T12:53:54.571Z,38.20
2022-07-26T12:56:21.236Z,38.50
2022-07-26T12:58:47.834Z,38.90
2022-07-26T13:01:14.856Z,38.80
2022-07-26T13:03:41.543Z,39.20
2022-07-26T13:06:08.264Z,39.10
2022-07-26T13:08:34.834Z,39.50
2022-07-26T13:11:01.426Z,40.30
2022-07-26T13:13:28.035Z,40.40
2022-07-26T13:15:54.589Z,40.60
2022-07-26T13:18:21.193Z,40.80
2022-07-26T13:20:47.825Z,40.80
2022-07-26T13:23:17.880Z,40.80
2022-07-26T13:25:48.717Z,40.90
2022-07-26T13:28:16.881Z,41.10
2022-07-26T13:30:43.752Z,41.40
2022-07-26T13:33:10.543Z,40.80
2022-07-26T13:35:39.300Z,40.90
2022-07-26T13:38:08.030Z,40.60
2022-07-26T13:40:34.673Z,40.90
2022-07-26T13:43:01.427Z,40.00
2022-07-26T13:45:29.505Z,39.00
2022-07-26T13:47:57.321Z,38.20
2022-07-26T13:50:25.547Z,37.70
2022-07-26T13:52:52.150Z,37.80
2022-07-26T13:55:19.220Z,37.60
2022-07-26T13:57:55.653Z,38.30
2022-07-26T14:00:24.544Z,38.40
2022-07-26T14:02:51.228Z,38.60
2022-07-26T14:05:18.500Z,38.90
2022-07-26T14:07:45.151Z,38.20
2022-07-26T14:10:11.730Z,36.70
2022-07-26T14:12:38.362Z,36.00
2022-07-26T14:15:10.906Z,36.20
2022-07-26T14:17:39.556Z,36.70
2022-07-26T14:20:06.508Z,36.90
2022-07-26T14:22:33.063Z,37.00
2022-07-26T14:24:59.690Z,37.10
2022-07-26T14:27:26.290Z,37.30
2022-07-26T14:29:52.870Z,36.80
2022-07-26T14:32:22.018Z,36.40
2022-07-26T14:34:49.280Z,35.80
2022-07-26T14:37:42.814Z,35.50
2022-07-26T14:40:02.809Z,35.60
2022-07-26T14:42:29.391Z,35.30
2022-07-26T14:44:55.996Z,35.20
2022-07-26T14:47:22.697Z,34.90
2022-07-26T14:49:49.427Z,34.80
2022-07-26T14:52:16.390Z,34.90
2022-07-26T14:54:43.027Z,34.80
2022-07-26T14:57:09.634Z,34.30
2022-07-26T14:59:36.263Z,34.10
2022-07-26T15:02:05.820Z,34.10
2022-07-26T15:04:32.927Z,34.30
2022-07-26T15:06:59.845Z,34.00
2022-07-26T15:09:26.587Z,33.60
2022-07-26T15:11:53.146Z,33.30
2022-07-26T15:14:19.710Z,33.00
2022-07-26T15:16:46.467Z,32.80
2022-07-26T15:19:13.405Z,32.40
2022-07-26T15:21:40.001Z,32.50
2022-07-26T15:24:07.451Z,32.70
2022-07-26T15:26:34.174Z,32.80
2022-07-26T15:29:00.809Z,32.80
2022-07-26T15:31:37.081Z,32.80
2022-07-26T15:34:07.524Z,32.70
2022-07-26T15:36:34.318Z,32.70
2022-07-26T15:39:15.596Z,32.60
2022-07-26T15:41:43.507Z,32.70
2022-07-26T15:44:10.767Z,32.80
2022-07-26T15:46:39.015Z,32.70
2022-07-26T15:49:06.874Z,32.70
2022-07-26T15:51:33.830Z,32.60
2022-07-26T15:54:01.811Z,32.40
2022-07-26T15:56:28.391Z,32.10
2022-07-26T15:58:55.002Z,32.10
2022-07-26T16:01:21.690Z,32.00
2022-07-26T16:03:48.414Z,32.10
2022-07-26T16:06:15.016Z,31.90
2022-07-26T16:08:58.843Z,31.70
2022-07-26T16:11:28.656Z,31.40
2022-07-26T16:14:01.566Z,31.20
2022-07-26T16:16:29.437Z,31.00
2022-07-26T16:18:56.309Z,30.60
2022-07-26T16:21:23.073Z,30.20
2022-07-26T16:23:50.914Z,30.10
2022-07-26T16:26:17.780Z,29.90
2022-07-26T16:28:44.333Z,29.80
2022-07-26T16:31:10.995Z,29.70
2022-07-26T16:33:37.800Z,29.60
2022-07-26T16:36:12.425Z,29.40
2022-07-26T16:38:39.012Z,29.40
2022-07-26T16:41:05.678Z,29.30
2022-07-26T16:43:32.388Z,29.30
2022-07-26T16:45:59.121Z,29.10
2022-07-26T16:48:25.771Z,29.10
2022-07-26T16:50:52.368Z,28.60
2022-07-26T16:53:18.952Z,28.60
2022-07-26T16:55:47.044Z,28.50
2022-07-26T16:58:13.638Z,28.40
2022-07-26T17:00:40.248Z,28.20
2022-07-26T17:03:06.877Z,28.00
2022-07-26T17:05:33.492Z,27.90
2022-07-26T17:08:00.116Z,27.80
2022-07-26T17:10:26.800Z,27.70
2022-07-26T17:12:53.515Z,27.50
2022-07-26T17:15:20.099Z,27.50
2022-07-26T17:17:48.804Z,27.50
2022-07-26T17:20:15.772Z,27.40
2022-07-26T17:22:42.351Z,27.30
2022-07-26T17:25:09.043Z,27.20
2022-07-26T17:27:35.944Z,27.20
2022-07-26T17:30:06.866Z,27.00
2022-07-26T17:32:34.374Z,26.90
2022-07-26T17:35:01.050Z,26.90
2022-07-26T17:37:27.661Z,26.80
2022-07-26T17:39:55.380Z,26.70
2022-07-26T17:42:23.979Z,26.50
2022-07-26T17:44:50.941Z,26.60
2022-07-26T17:47:27.527Z,26.50
2022-07-26T17:49:55.806Z,26.40
2022-07-26T17:52:23.615Z,26.30
2022-07-26T17:54:50.758Z,26.20
2022-07-26T17:57:17.315Z,26.20
2022-07-26T17:59:43.876Z,26.10
2022-07-26T18:02:10.608Z,26.00
2022-07-26T18:04:37.229Z,25.90
2022-07-26T18:07:03.831Z,25.90
2022-07-26T18:09:30.488Z,25.90
2022-07-26T18:11:57.096Z,25.90
2022-07-26T18:14:23.825Z,25.70
2022-07-26T18:16:54.347Z,25.70
2022-07-26T18:19:21.272Z,25.60
2022-07-26T18:21:47.899Z,25.60
2022-07-26T18:24:17.178Z,25.70
2022-07-26T18:26:44.306Z,25.50
2022-07-26T18:29:11.588Z,25.50
2022-07-26T18:31:38.482Z,25.40
2022-07-26T18:34:06.737Z,25.40
2022-07-26T18:36:33.912Z,25.30
2022-07-26T18:39:00.972Z,25.20
2022-07-26T18:41:31.549Z,25.20
2022-07-26T18:44:00.948Z,25.10
2022-07-26T18:46:27.989Z,25.10
2022-07-26T18:48:54.764Z,25.00
2022-07-26T18:51:22.075Z,25.00
2022-07-26T18:53:53.200Z,24.90
2022-07-26T18:56:20.057Z,24.80
2022-07-26T18:58:46.834Z,24.80
2022-07-26T19:01:13.602Z,24.70
2022-07-26T19:03:40.318Z,24.80
2022-07-26T19:06:07.220Z,24.60
2022-07-26T19:08:33.860Z,24.60
2022-07-26T19:11:00.461Z,24.50
2022-07-26T19:13:27.197Z,24.50
2022-07-26T19:15:53.856Z,24.50
2022-07-26T19:18:20.497Z,24.40
2022-07-26T19:20:47.141Z,24.30
2022-07-26T19:23:13.815Z,24.20
2022-07-26T19:25:40.626Z,24.20
2022-07-26T19:28:07.616Z,24.10
2022-07-26T19:30:35.983Z,24.00
2022-07-26T19:33:02.697Z,24.00
2022-07-26T19:35:29.334Z,23.90
2022-07-26T19:37:55.971Z,23.80
2022-07-26T19:40:22.606Z,23.80
2022-07-26T19:42:49.335Z,23.80
2022-07-26T19:45:15.923Z,23.70
2022-07-26T19:47:43.075Z,23.60
2022-07-26T19:50:09.849Z,23.60
2022-07-26T19:52:36.453Z,23.50
2022-07-26T19:55:03.638Z,23.50
2022-07-26T19:57:30.256Z,23.50
2022-07-26T19:59:56.971Z,23.40
2022-07-26T20:02:23.776Z,23.40
2022-07-26T20:04:51.071Z,23.30
2022-07-26T20:07:19.681Z,23.30
2022-07-26T20:09:47.358Z,23.20
2022-07-26T20:12:14.349Z,23.20
2022-07-26T20:14:40.940Z,23.20
2022-07-26T20:17:12.073Z,23.10
2022-07-26T20:19:40.510Z,23.10
2022-07-26T20:22:07.238Z,22.90
2022-07-26T20:24:33.909Z,22.90
2022-07-26T20:27:00.548Z,22.90
2022-07-26T20:29:27.216Z,22.80
2022-07-26T20:31:53.833Z,22.80
2022-07-26T20:34:20.460Z,22.80
2022-07-26T20:36:47.075Z,22.80
2022-07-26T20:39:14.067Z,22.70
2022-07-26T20:41:41.397Z,22.70
2022-07-26T20:44:07.950Z,22.60
2022-07-26T20:46:39.694Z,22.60
2022-07-26T20:49:07.132Z,22.60
2022-07-26T20:51:34.087Z,22.60
2022-07-26T20:54:00.750Z,22.50
2022-07-26T20:56:27.643Z,22.50
2022-07-26T20:58:55.368Z,22.50
2022-07-26T21:01:22.029Z,22.40
2022-07-26T21:03:48.672Z,22.40
2022-07-26T21:06:15.313Z,22.30
2022-07-26T21:08:41.885Z,22.30
2022-07-26T21:11:08.483Z,22.20
2022-07-26T21:13:35.113Z,22.20
2022-07-26T21:16:01.835Z,22.10
2022-07-26T21:18:29.839Z,22.20
2022-07-26T21:20:56.876Z,22.10
2022-07-26T21:23:23.467Z,22.10
2022-07-26T21:25:50.091Z,22.00
2022-07-26T21:28:24.831Z,22.10
2022-07-26T21:30:51.432Z,22.00
2022-07-26T21:33:18.012Z,22.00
2022-07-26T21:35:44.611Z,21.90
2022-07-26T21:38:11.510Z,21.90
2022-07-26T21:40:38.120Z,21.80
2022-07-26T21:43:04.771Z,21.80
2022-07-26T21:45:31.410Z,21.80
2022-07-26T21:47:58.081Z,21.70
2022-07-26T21:50:24.644Z,21.70
2022-07-26T21:52:51.276Z,21.60
2022-07-26T21:55:18.322Z,21.60
2022-07-26T21:57:45.334Z,21.50
2022-07-26T22:00:13.385Z,21.50
2022-07-26T22:02:40.029Z,21.50
2022-07-26T22:05:25.480Z,21.40
2022-07-26T22:07:52.111Z,21.40
2022-07-26T22:10:18.815Z,21.40
2022-07-26T22:12:45.544Z,21.30
2022-07-26T22:15:12.198Z,21.30
2022-07-26T22:17:42.013Z,21.30
2022-07-26T22:20:09.467Z,21.20
2022-07-26T22:22:36.650Z,21.10
2022-07-26T22:25:03.923Z,21.10
2022-07-26T22:27:30.494Z,21.00
2022-07-26T22:29:57.145Z,21.00
2022-07-26T22:32:23.772Z,20.90
2022-07-26T22:34:50.505Z,20.90
2022-07-26T22:37:17.113Z,20.80
2022-07-26T22:39:43.694Z,20.80
2022-07-26T22:42:15.851Z,20.70
2022-07-26T22:44:42.803Z,20.70
2022-07-26T22:47:09.402Z,20.60
2022-07-26T22:49:36.116Z,20.60
2022-07-26T22:52:02.743Z,20.50
2022-07-26T22:54:29.296Z,20.40
2022-07-26T22:56:55.904Z,20.40
2022-07-26T22:59:22.778Z,20.30
2022-07-26T23:01:49.376Z,20.30
2022-07-26T23:04:16.102Z,20.20
2022-07-26T23:06:43.047Z,20.20
2022-07-26T23:09:11.656Z,20.10
2022-07-26T23:11:38.679Z,20.10
2022-07-26T23:14:05.602Z,20.00
2022-07-26T23:16:32.297Z,20.00
2022-07-26T23:18:59.066Z,19.90
2022-07-26T23:21:25.649Z,19.90
2022-07-26T23:23:52.193Z,19.80
2022-07-26T23:26:18.761Z,19.70
2022-07-26T23:28:45.422Z,19.80
2022-07-26T23:31:12.661Z,19.70
2022-07-26T23:33:52.257Z,19.70
2022-07-26T23:36:27.959Z,19.60
2022-07-26T23:38:55.499Z,19.60
2022-07-26T23:41:22.178Z,19.60
2022-07-26T23:43:48.848Z,19.60
2022-07-26T23:46:15.539Z,19.50
2022-07-26T23:48:42.317Z,19.50
2022-07-26T23:51:09.039Z,19.40
2022-07-26T23:53:35.657Z,19.40
2022-07-26T23:56:02.234Z,19.40
2022-07-26T23:58:28.954Z,19.40
